Time;durP1;ratioP1;P1;durP2;ratioP2;P2;SDS_P1;SDS_P2;PMS_P1;PMS_P2;Temp;Humidity;BMP_temperature;BMP_pressure;BME280_temperature;BME280_humidity;BME280_pressure;Samples;Min_cycle;Max_cycle;Signal;HPM_P1;HPM_P2
2022/07/15 00:02:16;;;;;;;;;;;29.70;90.30;;;;;;5146815;27;19950;-46
2022/07/15 00:04:42;;;;;;;;;;;29.70;90.10;;;;;;5147334;27;19926;-46
2022/07/15 00:07:08;;;;;;;;;;;29.70;90.00;;;;;;5146829;27;19927;-45
2022/07/15 00:12:19;;;;;;;;;;;29.70;90.00;;;;;;5146654;27;19911;-52
2022/07/15 00:14:45;;;;;;;;;;;29.70;90.40;;;;;;5146943;27;19909;-46
2022/07/15 00:17:11;;;;;;;;;;;29.70;90.40;;;;;;5146635;27;19911;-49
2022/07/15 00:19:38;;;;;;;;;;;29.60;90.50;;;;;;5146647;27;19903;-52
2022/07/15 00:22:04;;;;;;;;;;;29.60;90.50;;;;;;5146366;27;19944;-52
2022/07/15 00:24:30;;;;;;;;;;;29.60;90.70;;;;;;5146681;27;19953;-46
2022/07/15 00:26:56;;;;;;;;;;;29.60;90.40;;;;;;5146582;27;19940;-48
2022/07/15 00:29:23;;;;;;;;;;;29.60;90.40;;;;;;5146499;27;19904;-52
2022/07/15 00:31:49;;;;;;;;;;;29.60;90.60;;;;;;5146315;27;19911;-45
2022/07/15 00:34:16;;;;;;;;;;;29.60;90.40;;;;;;5146549;27;19903;-45
2022/07/15 00:36:42;;;;;;;;;;;29.60;90.50;;;;;;5146318;27;20235;-48
2022/07/15 00:39:09;;;;;;;;;;;29.60;90.50;;;;;;5146362;27;19911;-49
2022/07/15 00:41:36;;;;;;;;;;;29.50;90.60;;;;;;5145907;27;20104;-54
2022/07/15 00:44:03;;;;;;;;;;;29.50;90.80;;;;;;5146189;27;19910;-51
2022/07/15 00:46:30;;;;;;;;;;;29.50;90.70;;;;;;5146185;27;20233;-45
2022/07/15 00:48:57;;;;;;;;;;;29.50;90.70;;;;;;5144839;27;19903;-51
2022/07/15 00:51:23;;;;;;;;;;;29.50;90.80;;;;;;5143899;27;19993;-51
2022/07/15 00:53:50;;;;;;;;;;;29.40;90.70;;;;;;5144311;27;19907;-44
2022/07/15 00:56:17;;;;;;;;;;;29.40;90.90;;;;;;5138351;27;19907;-49
2022/07/15 00:58:44;;;;;;;;;;;29.30;91.00;;;;;;5139244;27;19903;-48
2022/07/15 01:01:10;;;;;;;;;;;29.30;91.10;;;;;;5134966;27;19922;-47
2022/07/15 01:03:36;;;;;;;;;;;29.20;91.30;;;;;;5138308;27;19915;-45
2022/07/15 01:06:03;;;;;;;;;;;29.20;91.40;;;;;;5141287;27;20200;-48
2022/07/15 01:08:29;;;;;;;;;;;29.20;91.60;;;;;;5134017;27;19900;-42
2022/07/15 01:10:55;;;;;;;;;;;29.10;91.60;;;;;;5125065;28;19903;-42
2022/07/15 01:13:22;;;;;;;;;;;29.10;91.50;;;;;;5130632;27;20092;-43
2022/07/15 01:15:48;;;;;;;;;;;29.10;91.60;;;;;;5130783;27;19915;-44
2022/07/15 01:18:15;;;;;;;;;;;29.10;91.70;;;;;;5143662;27;19935;-52
2022/07/15 01:20:42;;;;;;;;;;;29.10;91.80;;;;;;5136097;27;20159;-45
2022/07/15 01:23:08;;;;;;;;;;;29.00;91.80;;;;;;5124248;28;19904;-45
2022/07/15 01:25:34;;;;;;;;;;;29.00;91.80;;;;;;5125371;28;19899;-43
2022/07/15 01:28:00;;;;;;;;;;;29.00;91.80;;;;;;5124999;28;19908;-44
2022/07/15 01:30:26;;;;;;;;;;;29.00;91.80;;;;;;5124667;28;19944;-44
2022/07/15 01:32:53;;;;;;;;;;;29.00;91.90;;;;;;5124794;28;19922;-43
2022/07/15 01:35:19;;;;;;;;;;;28.90;91.90;;;;;;5124666;28;19933;-43
2022/07/15 01:37:45;;;;;;;;;;;28.90;91.90;;;;;;5124125;28;20187;-44
2022/07/15 01:40:12;;;;;;;;;;;28.90;91.80;;;;;;5125105;28;20013;-50
2022/07/15 01:42:38;;;;;;;;;;;28.80;92.00;;;;;;5134298;27;19978;-44
2022/07/15 01:45:05;;;;;;;;;;;28.90;92.10;;;;;;5126590;28;20147;-44
2022/07/15 01:47:32;;;;;;;;;;;28.90;92.10;;;;;;5124598;28;20201;-43
2022/07/15 01:49:59;;;;;;;;;;;28.80;92.30;;;;;;5124489;28;19907;-44
2022/07/15 01:52:25;;;;;;;;;;;28.80;92.40;;;;;;5124593;28;19910;-45
2022/07/15 01:54:51;;;;;;;;;;;28.80;92.40;;;;;;5124960;28;19911;-42
2022/07/15 01:57:18;;;;;;;;;;;28.80;92.40;;;;;;5124178;28;19911;-42
2022/07/15 01:59:44;;;;;;;;;;;28.80;92.40;;;;;;5124895;28;19903;-47
2022/07/15 02:02:10;;;;;;;;;;;28.80;92.40;;;;;;5137777;28;19957;-45
2022/07/15 02:04:36;;;;;;;;;;;28.70;92.40;;;;;;5134882;28;20231;-43
2022/07/15 02:07:04;;;;;;;;;;;28.70;92.60;;;;;;5124521;28;20009;-45
2022/07/15 02:09:30;;;;;;;;;;;28.70;92.60;;;;;;5124549;28;19903;-45
2022/07/15 02:11:56;;;;;;;;;;;28.70;92.70;;;;;;5124010;28;20184;-50
2022/07/15 02:14:22;;;;;;;;;;;28.70;92.70;;;;;;5124642;28;19903;-45
2022/07/15 02:16:49;;;;;;;;;;;28.70;92.60;;;;;;5124224;28;19903;-44
2022/07/15 02:19:15;;;;;;;;;;;28.70;92.50;;;;;;5124523;28;19945;-46
2022/07/15 02:21:41;;;;;;;;;;;28.60;92.50;;;;;;5124010;28;19978;-43
2022/07/15 02:24:07;;;;;;;;;;;28.60;92.60;;;;;;5124362;28;19903;-47
2022/07/15 02:26:34;;;;;;;;;;;28.60;92.60;;;;;;5123796;28;20233;-45
2022/07/15 02:29:00;;;;;;;;;;;28.60;92.50;;;;;;5124096;28;19903;-46
2022/07/15 02:31:27;;;;;;;;;;;28.60;92.50;;;;;;5123882;28;19918;-47
2022/07/15 02:33:53;;;;;;;;;;;28.50;92.60;;;;;;5124437;28;19904;-55
2022/07/15 02:36:19;;;;;;;;;;;28.50;92.50;;;;;;5130581;27;20103;-48
2022/07/15 02:38:46;;;;;;;;;;;28.50;92.30;;;;;;5148284;27;19974;-46
2022/07/15 02:41:12;;;;;;;;;;;28.50;92.30;;;;;;5148048;27;20148;-45
2022/07/15 02:43:38;;;;;;;;;;;28.60;92.20;;;;;;5148643;27;19999;-46
2022/07/15 02:46:05;;;;;;;;;;;28.50;92.10;;;;;;5148010;27;20073;-48
2022/07/15 02:48:31;;;;;;;;;;;28.60;92.10;;;;;;5148354;27;19918;-44
2022/07/15 02:50:57;;;;;;;;;;;28.60;92.10;;;;;;5147936;27;19956;-50
2022/07/15 02:53:28;;;;;;;;;;;28.60;92.10;;;;;;5148363;27;20236;-46
2022/07/15 02:55:55;;;;;;;;;;;28.50;92.10;;;;;;5147708;27;19915;-46
2022/07/15 02:58:23;;;;;;;;;;;28.60;92.30;;;;;;5148083;27;20080;-45
2022/07/15 03:00:49;;;;;;;;;;;28.60;92.20;;;;;;5148067;27;20192;-45
2022/07/15 03:03:16;;;;;;;;;;;28.60;92.20;;;;;;5147829;27;20117;-45
2022/07/15 03:05:42;;;;;;;;;;;28.60;92.20;;;;;;5148135;27;19903;-46
2022/07/15 03:08:08;;;;;;;;;;;28.60;92.30;;;;;;5147974;27;19903;-45
2022/07/15 03:10:34;;;;;;;;;;;28.60;92.20;;;;;;5147985;27;20233;-44
2022/07/15 03:13:00;;;;;;;;;;;28.50;92.30;;;;;;5147944;27;19910;-46
2022/07/15 03:15:26;;;;;;;;;;;28.60;92.50;;;;;;5148278;27;19903;-45
2022/07/15 03:17:52;;;;;;;;;;;28.60;92.60;;;;;;5147820;27;19934;-51
2022/07/15 03:20:19;;;;;;;;;;;28.50;92.60;;;;;;5148178;27;19903;-47
2022/07/15 03:22:45;;;;;;;;;;;28.50;92.60;;;;;;5147735;27;19907;-45
2022/07/15 03:25:11;;;;;;;;;;;28.50;92.50;;;;;;5147520;27;19923;-45
2022/07/15 03:27:38;;;;;;;;;;;28.50;92.50;;;;;;5147593;27;20084;-45
2022/07/15 03:30:04;;;;;;;;;;;28.50;92.30;;;;;;5147930;27;19903;-45
2022/07/15 03:32:30;;;;;;;;;;;28.50;92.40;;;;;;5147562;27;20099;-47
2022/07/15 03:34:59;;;;;;;;;;;28.50;92.30;;;;;;5147039;27;19940;-48
2022/07/15 03:37:25;;;;;;;;;;;28.50;92.20;;;;;;5147500;27;19910;-48
2022/07/15 03:39:53;;;;;;;;;;;28.50;92.30;;;;;;5147178;27;19939;-53
2022/07/15 03:42:20;;;;;;;;;;;28.50;92.30;;;;;;5147413;27;19910;-44
2022/07/15 03:44:46;;;;;;;;;;;28.50;92.20;;;;;;5147507;27;20029;-47
2022/07/15 03:47:12;;;;;;;;;;;28.50;92.20;;;;;;5146905;27;19899;-44
2022/07/15 03:49:38;;;;;;;;;;;28.50;92.20;;;;;;5147673;27;19907;-48
2022/07/15 03:52:04;;;;;;;;;;;28.50;92.20;;;;;;5147140;27;19940;-47
2022/07/15 03:54:30;;;;;;;;;;;28.40;92.30;;;;;;5146923;27;19907;-46
2022/07/15 03:56:56;;;;;;;;;;;28.40;92.30;;;;;;5146921;27;19908;-45
2022/07/15 03:59:22;;;;;;;;;;;28.40;92.20;;;;;;5147460;27;19970;-45
2022/07/15 04:01:49;;;;;;;;;;;28.40;92.40;;;;;;5147098;27;19903;-46
2022/07/15 04:04:15;;;;;;;;;;;28.40;92.40;;;;;;5147330;27;19914;-46
2022/07/15 04:06:42;;;;;;;;;;;28.40;92.50;;;;;;5147104;27;19906;-46
2022/07/15 04:09:09;;;;;;;;;;;28.40;92.50;;;;;;5147108;27;19914;-46
2022/07/15 04:11:36;;;;;;;;;;;28.40;92.50;;;;;;5146795;27;19962;-48
2022/07/15 04:14:02;;;;;;;;;;;28.40;92.50;;;;;;5147308;27;19907;-45
2022/07/15 04:16:29;;;;;;;;;;;28.40;92.70;;;;;;5146742;27;19899;-47
2022/07/15 04:18:55;;;;;;;;;;;28.30;92.70;;;;;;5146784;27;19974;-46
2022/07/15 04:21:22;;;;;;;;;;;28.40;92.70;;;;;;5147116;27;19899;-45
2022/07/15 04:23:48;;;;;;;;;;;28.40;92.60;;;;;;5147092;27;19991;-45
2022/07/15 04:26:14;;;;;;;;;;;28.40;92.90;;;;;;5146708;27;20176;-44
2022/07/15 04:28:40;;;;;;;;;;;28.30;92.80;;;;;;5146940;27;19976;-46
2022/07/15 04:31:06;;;;;;;;;;;28.30;92.70;;;;;;5146624;27;19900;-46
2022/07/15 04:33:32;;;;;;;;;;;28.30;92.70;;;;;;5146499;27;20188;-45
2022/07/15 04:35:58;;;;;;;;;;;28.30;92.90;;;;;;5146358;27;19911;-49
2022/07/15 04:38:25;;;;;;;;;;;28.30;92.90;;;;;;5146504;27;19978;-48
2022/07/15 04:40:52;;;;;;;;;;;28.30;92.80;;;;;;5146380;27;19903;-51
2022/07/15 04:43:18;;;;;;;;;;;28.30;92.80;;;;;;5146268;27;20027;-44
2022/07/15 04:45:44;;;;;;;;;;;28.30;92.80;;;;;;5146078;27;19935;-51
2022/07/15 04:50:56;;;;;;;;;;;28.20;92.90;;;;;;5146234;27;19914;-46
2022/07/15 04:53:23;;;;;;;;;;;28.20;92.70;;;;;;5146196;27;19906;-46
2022/07/15 04:55:49;;;;;;;;;;;28.20;92.80;;;;;;5146080;27;19910;-46
2022/07/15 04:58:15;;;;;;;;;;;28.20;92.80;;;;;;5145275;27;19906;-50
2022/07/15 05:00:45;;;;;;;;;;;28.20;92.70;;;;;;5146032;27;19910;-44
2022/07/15 05:03:11;;;;;;;;;;;28.20;92.80;;;;;;5145839;27;19904;-46
2022/07/15 05:05:38;;;;;;;;;;;28.10;92.70;;;;;;5146153;27;20215;-47
2022/07/15 05:08:04;;;;;;;;;;;28.10;92.80;;;;;;5146006;27;19904;-46
2022/07/15 05:10:30;;;;;;;;;;;28.10;92.80;;;;;;5144836;27;20125;-51
2022/07/15 05:12:57;;;;;;;;;;;28.10;92.80;;;;;;5145828;27;20040;-46
2022/07/15 05:15:23;;;;;;;;;;;28.00;92.70;;;;;;5146227;27;20225;-47
2022/07/15 05:17:50;;;;;;;;;;;28.00;92.70;;;;;;5145672;27;19910;-48
2022/07/15 05:20:16;;;;;;;;;;;28.00;92.70;;;;;;5146224;27;19904;-53
2022/07/15 05:22:42;;;;;;;;;;;28.00;92.70;;;;;;5145775;27;19914;-54
2022/07/15 05:25:08;;;;;;;;;;;27.90;92.70;;;;;;5145952;27;19903;-53
2022/07/15 05:27:34;;;;;;;;;;;28.00;92.80;;;;;;5145791;27;19910;-49
2022/07/15 05:30:01;;;;;;;;;;;28.00;92.80;;;;;;5145673;27;20106;-48
2022/07/15 05:32:27;;;;;;;;;;;27.90;92.80;;;;;;5145480;27;19970;-52
2022/07/15 05:34:54;;;;;;;;;;;27.90;92.80;;;;;;5145912;27;20125;-46
2022/07/15 05:37:20;;;;;;;;;;;27.90;92.90;;;;;;5145574;27;19899;-45
2022/07/15 05:39:56;;;;;;;;;;;27.90;92.90;;;;;;5145730;27;19907;-51
2022/07/15 05:42:23;;;;;;;;;;;27.90;92.70;;;;;;5145266;27;19979;-47
2022/07/15 05:44:49;;;;;;;;;;;27.90;92.80;;;;;;5145788;27;19914;-46
2022/07/15 05:47:16;;;;;;;;;;;27.80;92.80;;;;;;5145332;27;19899;-48
2022/07/15 05:49:42;;;;;;;;;;;27.80;92.80;;;;;;5145744;28;19907;-44
2022/07/15 05:52:09;;;;;;;;;;;27.80;92.70;;;;;;5145422;28;19940;-49
2022/07/15 05:54:37;;;;;;;;;;;27.80;92.70;;;;;;5145536;28;20129;-46
2022/07/15 05:57:03;;;;;;;;;;;27.80;92.80;;;;;;5145372;28;19900;-48
2022/07/15 05:59:29;;;;;;;;;;;27.80;92.70;;;;;;5145515;28;19946;-45
2022/07/15 06:01:55;;;;;;;;;;;27.80;92.60;;;;;;5145136;28;19911;-46
2022/07/15 06:04:21;;;;;;;;;;;27.80;92.60;;;;;;5145522;28;20084;-46
2022/07/15 06:06:48;;;;;;;;;;;27.80;92.50;;;;;;5145206;28;19913;-46
2022/07/15 06:09:14;;;;;;;;;;;27.70;92.50;;;;;;5145491;27;20140;-48
2022/07/15 06:11:40;;;;;;;;;;;27.70;92.50;;;;;;5149384;27;19915;-45
2022/07/15 06:14:06;;;;;;;;;;;27.80;92.50;;;;;;5149536;27;20138;-47
2022/07/15 06:16:32;;;;;;;;;;;27.70;92.30;;;;;;5149304;27;19906;-51
2022/07/15 06:18:59;;;;;;;;;;;27.70;92.30;;;;;;5149281;27;19914;-55
2022/07/15 06:21:25;;;;;;;;;;;27.70;92.40;;;;;;5149081;27;19941;-43
2022/07/15 06:23:51;;;;;;;;;;;27.70;92.40;;;;;;5149310;27;20087;-45
2022/07/15 06:26:17;;;;;;;;;;;27.70;92.40;;;;;;5148883;27;19899;-45
2022/07/15 06:28:43;;;;;;;;;;;27.70;92.30;;;;;;5149267;27;19908;-47
2022/07/15 06:31:09;;;;;;;;;;;27.70;92.20;;;;;;5149097;27;20179;-47
2022/07/15 06:33:35;;;;;;;;;;;27.70;92.40;;;;;;5148907;27;20272;-47
2022/07/15 06:36:01;;;;;;;;;;;27.70;92.40;;;;;;5148864;27;19918;-45
2022/07/15 06:38:27;;;;;;;;;;;27.60;92.30;;;;;;5149180;27;19899;-50
2022/07/15 06:40:54;;;;;;;;;;;27.60;92.40;;;;;;5148655;27;19906;-47
2022/07/15 06:43:20;;;;;;;;;;;27.60;92.40;;;;;;5148598;27;19926;-44
2022/07/15 06:45:46;;;;;;;;;;;27.60;92.40;;;;;;5148663;27;20203;-51
2022/07/15 06:48:12;;;;;;;;;;;27.60;92.40;;;;;;5148541;27;19899;-52
2022/07/15 06:50:38;;;;;;;;;;;27.60;92.50;;;;;;5148594;27;19911;-45
2022/07/15 06:53:04;;;;;;;;;;;27.60;92.50;;;;;;5148831;27;20269;-45
2022/07/15 06:55:30;;;;;;;;;;;27.60;92.40;;;;;;5149068;27;19968;-49
2022/07/15 06:57:57;;;;;;;;;;;27.50;92.50;;;;;;5148498;27;19966;-45
2022/07/15 07:00:23;;;;;;;;;;;27.50;92.60;;;;;;5148784;27;19970;-45
2022/07/15 07:02:49;;;;;;;;;;;27.50;92.40;;;;;;5148291;27;19904;-51
2022/07/15 07:05:16;;;;;;;;;;;27.50;92.50;;;;;;5148700;27;19915;-44
2022/07/15 07:07:42;;;;;;;;;;;27.50;92.50;;;;;;5148247;27;19899;-45
2022/07/15 07:10:08;;;;;;;;;;;27.50;92.40;;;;;;5148602;27;19907;-45
2022/07/15 07:12:35;;;;;;;;;;;27.50;92.40;;;;;;5148032;27;19907;-45
2022/07/15 07:15:02;;;;;;;;;;;27.50;92.40;;;;;;5148529;27;20099;-53
2022/07/15 07:17:29;;;;;;;;;;;27.50;92.40;;;;;;5148104;27;19926;-45
2022/07/15 07:19:55;;;;;;;;;;;27.50;92.30;;;;;;5148359;27;19907;-47
2022/07/15 07:22:22;;;;;;;;;;;27.50;92.30;;;;;;5146978;27;19933;-46
2022/07/15 07:24:48;;;;;;;;;;;27.50;92.30;;;;;;5148383;27;19970;-45
2022/07/15 07:27:14;;;;;;;;;;;27.50;92.20;;;;;;5147914;27;20140;-47
2022/07/15 07:29:40;;;;;;;;;;;27.50;92.10;;;;;;5148201;27;19914;-45
2022/07/15 07:32:06;;;;;;;;;;;27.50;92.10;;;;;;5147909;27;19984;-45
2022/07/15 07:34:32;;;;;;;;;;;27.50;92.10;;;;;;5147681;27;19908;-52
2022/07/15 07:36:59;;;;;;;;;;;27.50;92.30;;;;;;5147769;27;19911;-45
2022/07/15 07:39:25;;;;;;;;;;;27.50;92.40;;;;;;5148001;27;20133;-45
2022/07/15 07:41:53;;;;;;;;;;;27.50;92.60;;;;;;5147614;27;19903;-55
2022/07/15 07:44:22;;;;;;;;;;;27.50;92.60;;;;;;5147666;27;19938;-55
2022/07/15 07:46:48;;;;;;;;;;;27.50;92.80;;;;;;5147586;27;20104;-54
2022/07/15 07:49:14;;;;;;;;;;;27.40;93.00;;;;;;5147489;27;20103;-47
2022/07/15 07:51:41;;;;;;;;;;;27.40;92.90;;;;;;5147439;27;19967;-45
2022/07/15 07:54:07;;;;;;;;;;;27.40;92.80;;;;;;5147562;27;19908;-50
2022/07/15 07:56:33;;;;;;;;;;;27.40;93.00;;;;;;5147504;27;20173;-46
2022/07/15 07:59:00;;;;;;;;;;;27.40;93.00;;;;;;5146227;27;19978;-47
2022/07/15 08:01:26;;;;;;;;;;;27.40;93.00;;;;;;5147255;27;20188;-47
2022/07/15 08:03:52;;;;;;;;;;;27.40;93.00;;;;;;5147355;27;20098;-49
2022/07/15 08:06:18;;;;;;;;;;;27.40;92.90;;;;;;5147120;27;19906;-51
2022/07/15 08:08:44;;;;;;;;;;;27.40;93.00;;;;;;5147246;27;20235;-47
2022/07/15 08:11:11;;;;;;;;;;;27.40;93.00;;;;;;5147278;27;20069;-44
2022/07/15 08:13:38;;;;;;;;;;;27.40;93.00;;;;;;5146957;27;20040;-47
2022/07/15 08:16:04;;;;;;;;;;;27.30;93.10;;;;;;5147005;27;19943;-48
2022/07/15 08:18:30;;;;;;;;;;;27.40;93.10;;;;;;5146827;27;19906;-48
2022/07/15 08:20:56;;;;;;;;;;;27.30;93.10;;;;;;5146831;27;19940;-45
2022/07/15 08:23:23;;;;;;;;;;;27.30;93.00;;;;;;5146887;27;19907;-46
2022/07/15 08:25:50;;;;;;;;;;;27.30;92.80;;;;;;5146800;27;20073;-45
2022/07/15 08:28:17;;;;;;;;;;;27.30;92.80;;;;;;5146606;27;19937;-48
2022/07/15 08:30:44;;;;;;;;;;;27.30;92.90;;;;;;5146666;27;20141;-47
2022/07/15 08:33:10;;;;;;;;;;;27.30;93.00;;;;;;5146439;27;19899;-44
2022/07/15 08:35:36;;;;;;;;;;;27.30;93.00;;;;;;5146574;27;19915;-49
2022/07/15 08:38:05;;;;;;;;;;;27.30;92.90;;;;;;5146938;27;19926;-46
2022/07/15 08:40:31;;;;;;;;;;;27.30;92.90;;;;;;5146938;27;19914;-54
2022/07/15 08:42:57;;;;;;;;;;;27.30;93.20;;;;;;5146266;27;19911;-45
2022/07/15 08:45:24;;;;;;;;;;;27.30;92.80;;;;;;5146902;27;19907;-46
2022/07/15 08:47:51;;;;;;;;;;;27.30;93.00;;;;;;5146588;27;19900;-46
2022/07/15 08:50:18;;;;;;;;;;;27.20;93.20;;;;;;5146631;27;19930;-46
2022/07/15 08:52:45;;;;;;;;;;;27.20;93.40;;;;;;5146314;27;19907;-46
2022/07/15 08:55:12;;;;;;;;;;;27.20;93.20;;;;;;5146587;27;20148;-52
2022/07/15 08:57:38;;;;;;;;;;;27.20;93.20;;;;;;5146053;27;19907;-50
2022/07/15 09:00:11;;;;;;;;;;;27.20;93.30;;;;;;5146529;27;19929;-51
2022/07/15 09:02:38;;;;;;;;;;;27.10;93.30;;;;;;5145974;27;19903;-46
2022/07/15 09:05:21;;;;;;;;;;;27.10;93.50;;;;;;5146265;27;19914;-46
2022/07/15 09:07:55;;;;;;;;;;;27.10;93.60;;;;;;5145965;27;19937;-46
2022/07/15 09:10:22;;;;;;;;;;;27.10;93.70;;;;;;5146315;27;19915;-45
2022/07/15 09:12:49;;;;;;;;;;;27.10;93.60;;;;;;5146053;27;19944;-46
2022/07/15 09:15:28;;;;;;;;;;;27.10;93.60;;;;;;5146249;27;19913;-45
2022/07/15 09:18:15;;;;;;;;;;;27.00;93.80;;;;;;5145702;27;19937;-47
2022/07/15 09:20:43;;;;;;;;;;;27.00;94.00;;;;;;5145391;27;19915;-44
2022/07/15 09:23:10;;;;;;;;;;;27.00;93.80;;;;;;5145638;27;20217;-44
2022/07/15 09:25:36;;;;;;;;;;;27.10;93.80;;;;;;5146186;27;19944;-49
2022/07/15 09:28:03;;;;;;;;;;;27.00;93.80;;;;;;5145676;27;19970;-49
2022/07/15 09:33:40;;;;;;;;;;;27.00;94.10;;;;;;5145635;27;19906;-46
2022/07/15 09:36:14;;;;;;;;;;;27.00;94.20;;;;;;5145383;27;19957;-45
2022/07/15 09:38:42;;;;;;;;;;;27.00;93.90;;;;;;5145602;27;20237;-51
2022/07/15 09:41:09;;;;;;;;;;;26.90;93.80;;;;;;5145606;27;19929;-45
2022/07/15 09:43:46;;;;;;;;;;;26.90;93.70;;;;;;5145505;27;19911;-45
2022/07/15 09:46:13;;;;;;;;;;;26.90;93.70;;;;;;5145008;27;20237;-47
2022/07/15 09:48:40;;;;;;;;;;;26.90;93.90;;;;;;5145505;27;19949;-47
2022/07/15 09:51:06;;;;;;;;;;;26.90;94.10;;;;;;5145404;28;19906;-47
2022/07/15 09:53:33;;;;;;;;;;;26.90;93.90;;;;;;5145300;28;19987;-53
2022/07/15 09:55:59;;;;;;;;;;;26.90;94.00;;;;;;5145448;28;19899;-44
2022/07/15 09:58:25;;;;;;;;;;;26.90;94.10;;;;;;5145378;28;20184;-46
2022/07/15 10:00:52;;;;;;;;;;;26.90;94.00;;;;;;5145002;28;19976;-46
2022/07/15 10:03:22;;;;;;;;;;;26.90;93.90;;;;;;5145052;28;19907;-45
2022/07/15 10:05:51;;;;;;;;;;;26.90;93.80;;;;;;5145470;28;20107;-48
2022/07/15 10:08:17;;;;;;;;;;;26.80;93.80;;;;;;5145125;28;19906;-46
2022/07/15 10:10:44;;;;;;;;;;;26.80;93.90;;;;;;5145176;28;19952;-45
2022/07/15 10:13:13;;;;;;;;;;;26.80;93.90;;;;;;5145177;28;19899;-49
2022/07/15 10:16:06;;;;;;;;;;;26.80;94.00;;;;;;5145046;28;19914;-48
2022/07/15 10:18:48;;;;;;;;;;;26.80;93.90;;;;;;5145133;28;19990;-46
2022/07/15 10:21:32;;;;;;;;;;;26.80;93.80;;;;;;5145109;28;19906;-48
2022/07/15 10:24:11;;;;;;;;;;;26.80;93.90;;;;;;5145151;28;20020;-54
2022/07/15 10:26:43;;;;;;;;;;;26.70;93.90;;;;;;5145232;28;19941;-47
2022/07/15 10:29:09;;;;;;;;;;;26.70;93.80;;;;;;5145261;28;19938;-52
2022/07/15 10:31:37;;;;;;;;;;;26.70;93.90;;;;;;5144888;28;19899;-44
2022/07/15 10:34:07;;;;;;;;;;;26.70;94.10;;;;;;5145205;28;19907;-54
2022/07/15 10:36:49;;;;;;;;;;;26.70;94.10;;;;;;5144905;28;19911;-48
2022/07/15 10:39:16;;;;;;;;;;;26.70;94.20;;;;;;5145160;28;19907;-50
2022/07/15 10:41:51;;;;;;;;;;;26.70;94.40;;;;;;5144933;28;19910;-45
2022/07/15 10:44:18;;;;;;;;;;;26.60;94.30;;;;;;5145097;28;20016;-47
2022/07/15 10:46:44;;;;;;;;;;;26.70;94.40;;;;;;5145000;28;19910;-51
2022/07/15 10:49:10;;;;;;;;;;;26.70;94.40;;;;;;5144815;28;19903;-47
2022/07/15 10:51:36;;;;;;;;;;;26.70;94.30;;;;;;5144633;28;19904;-45
2022/07/15 10:54:03;;;;;;;;;;;26.60;94.30;;;;;;5144993;28;19910;-52
2022/07/15 10:56:34;;;;;;;;;;;26.70;94.40;;;;;;5145144;27;19952;-44
2022/07/15 10:59:10;;;;;;;;;;;26.70;94.40;;;;;;5148577;27;19935;-49
2022/07/15 11:01:37;;;;;;;;;;;26.70;94.40;;;;;;5148498;27;19903;-46
2022/07/15 11:04:14;;;;;;;;;;;26.70;94.30;;;;;;5148421;27;19904;-45
2022/07/15 11:06:59;;;;;;;;;;;26.60;94.30;;;;;;5148246;27;19903;-50
2022/07/15 11:09:44;;;;;;;;;;;26.70;94.40;;;;;;5148328;27;20226;-47
2022/07/15 11:12:11;;;;;;;;;;;26.60;94.40;;;;;;5148249;27;19907;-48
2022/07/15 11:14:51;;;;;;;;;;;26.70;94.60;;;;;;5148243;27;19910;-47
2022/07/15 11:17:19;;;;;;;;;;;26.70;94.80;;;;;;5148054;27;19935;-48
2022/07/15 11:19:49;;;;;;;;;;;26.70;94.90;;;;;;5148188;27;19910;-47
2022/07/15 11:22:17;;;;;;;;;;;26.70;95.00;;;;;;5147823;27;19990;-46
2022/07/15 11:24:43;;;;;;;;;;;26.70;94.90;;;;;;5148000;27;20210;-47
2022/07/15 11:27:10;;;;;;;;;;;26.70;94.90;;;;;;5147590;27;19966;-48
2022/07/15 11:29:47;;;;;;;;;;;26.70;95.00;;;;;;5147984;27;19903;-58
2022/07/15 11:32:14;;;;;;;;;;;26.70;94.90;;;;;;5147709;27;19911;-44
2022/07/15 11:34:42;;;;;;;;;;;26.70;94.90;;;;;;5147638;27;20172;-45
2022/07/15 11:37:10;;;;;;;;;;;26.60;94.90;;;;;;5147634;27;19903;-48
2022/07/15 11:39:37;;;;;;;;;;;26.70;95.10;;;;;;5147941;27;19907;-45
2022/07/15 11:44:48;;;;;;;;;;;26.70;95.20;;;;;;5147903;27;19930;-44
2022/07/15 11:47:15;;;;;;;;;;;26.70;95.20;;;;;;5147357;27;19899;-48
2022/07/15 11:49:43;;;;;;;;;;;26.70;95.30;;;;;;5147705;27;19915;-49
2022/07/15 11:52:22;;;;;;;;;;;26.70;95.50;;;;;;5147426;27;19899;-47
2022/07/15 11:54:49;;;;;;;;;;;26.70;95.40;;;;;;5147775;27;19922;-45
2022/07/15 11:57:16;;;;;;;;;;;26.70;95.50;;;;;;5147316;27;19936;-48
2022/07/15 11:59:53;;;;;;;;;;;26.70;95.60;;;;;;5147517;27;19938;-48
2022/07/15 12:02:19;;;;;;;;;;;26.70;95.60;;;;;;5147090;27;19904;-45
2022/07/15 12:04:45;;;;;;;;;;;26.70;95.60;;;;;;5147681;27;19974;-47
2022/07/15 12:07:11;;;;;;;;;;;26.60;95.60;;;;;;5146724;27;20180;-53
2022/07/15 12:09:45;;;;;;;;;;;26.60;95.60;;;;;;5147428;27;19974;-56
2022/07/15 12:12:12;;;;;;;;;;;26.60;95.70;;;;;;5146987;27;19974;-45
2022/07/15 12:14:38;;;;;;;;;;;26.60;95.60;;;;;;5146974;27;19907;-46
2022/07/15 12:17:04;;;;;;;;;;;26.60;95.60;;;;;;5146860;27;19899;-47
2022/07/15 12:19:32;;;;;;;;;;;26.60;95.80;;;;;;5147236;27;19974;-56
2022/07/15 12:22:00;;;;;;;;;;;26.60;95.80;;;;;;5146522;27;20103;-45
2022/07/15 12:24:43;;;;;;;;;;;26.60;95.80;;;;;;5146764;27;19964;-48
2022/07/15 12:27:10;;;;;;;;;;;26.60;95.80;;;;;;5146478;27;19934;-49
2022/07/15 12:29:37;;;;;;;;;;;26.60;95.80;;;;;;5146941;27;19978;-48
2022/07/15 12:32:07;;;;;;;;;;;26.60;95.80;;;;;;5146550;27;20129;-47
2022/07/15 12:34:59;;;;;;;;;;;26.60;95.90;;;;;;5146309;27;19944;-46
2022/07/15 12:37:46;;;;;;;;;;;26.60;95.90;;;;;;5143275;27;19911;-52
2022/07/15 12:40:13;;;;;;;;;;;26.60;95.90;;;;;;5146541;27;19930;-46
2022/07/15 12:42:50;;;;;;;;;;;26.60;96.00;;;;;;5146212;27;19907;-47
2022/07/15 12:45:36;;;;;;;;;;;26.60;96.00;;;;;;5146610;27;19910;-46
2022/07/15 12:48:08;;;;;;;;;;;26.60;95.90;;;;;;5146299;27;19911;-46
2022/07/15 12:50:36;;;;;;;;;;;26.60;95.80;;;;;;5146483;27;19911;-44
2022/07/15 12:53:03;;;;;;;;;;;26.60;95.80;;;;;;5146025;27;19907;-44
2022/07/15 12:55:39;;;;;;;;;;;26.60;95.80;;;;;;5146684;27;19903;-46
2022/07/15 12:58:09;;;;;;;;;;;26.60;95.90;;;;;;5146252;27;20099;-44
2022/07/15 13:00:35;;;;;;;;;;;26.50;95.80;;;;;;5146689;27;19904;-53
2022/07/15 13:03:02;;;;;;;;;;;26.50;95.80;;;;;;5145847;27;20104;-45
2022/07/15 13:05:41;;;;;;;;;;;26.50;95.80;;;;;;5146884;27;19910;-48
2022/07/15 13:08:12;;;;;;;;;;;26.50;95.80;;;;;;5146043;27;19903;-51
2022/07/15 13:10:40;;;;;;;;;;;26.50;95.80;;;;;;5145962;27;19983;-46
2022/07/15 13:13:07;;;;;;;;;;;26.60;95.90;;;;;;5146006;27;19962;-49
2022/07/15 13:15:33;;;;;;;;;;;26.50;95.80;;;;;;5146252;27;19903;-45
2022/07/15 13:18:00;;;;;;;;;;;26.50;95.80;;;;;;5145882;27;19940;-49
2022/07/15 13:20:26;;;;;;;;;;;26.50;95.80;;;;;;5144971;27;19910;-46
2022/07/15 13:22:52;;;;;;;;;;;26.60;95.90;;;;;;5145658;27;20152;-49
2022/07/15 13:25:19;;;;;;;;;;;26.60;96.00;;;;;;5146129;27;20107;-46
2022/07/15 13:27:46;;;;;;;;;;;26.50;96.00;;;;;;5145734;27;19904;-43
2022/07/15 13:30:12;;;;;;;;;;;26.60;96.10;;;;;;5146118;27;19903;-44
2022/07/15 13:32:39;;;;;;;;;;;26.60;96.10;;;;;;5145604;27;19903;-44
2022/07/15 13:35:06;;;;;;;;;;;26.60;96.10;;;;;;5145809;27;19974;-44
2022/07/15 13:37:32;;;;;;;;;;;26.60;96.10;;;;;;5145484;27;19920;-48
2022/07/15 13:39:59;;;;;;;;;;;26.50;96.30;;;;;;5145828;27;19929;-46
2022/07/15 13:42:25;;;;;;;;;;;26.60;96.10;;;;;;5145410;27;20214;-43
2022/07/15 13:44:52;;;;;;;;;;;26.50;96.10;;;;;;5145761;27;19907;-45
2022/07/15 13:47:18;;;;;;;;;;;26.60;96.20;;;;;;5145699;27;20083;-48
2022/07/15 13:52:29;;;;;;;;;;;26.60;96.30;;;;;;5145349;28;19971;-46
2022/07/15 13:54:55;;;;;;;;;;;26.60;96.30;;;;;;5145702;28;19948;-49
2022/07/15 13:57:21;;;;;;;;;;;26.60;96.30;;;;;;5145285;28;19927;-54
2022/07/15 13:59:47;;;;;;;;;;;26.60;96.20;;;;;;5145533;28;19914;-44
2022/07/15 14:02:13;;;;;;;;;;;26.60;96.30;;;;;;5145171;28;19910;-48
2022/07/15 14:04:39;;;;;;;;;;;26.60;96.40;;;;;;5145211;28;19908;-44
2022/07/15 14:07:06;;;;;;;;;;;26.60;96.40;;;;;;5145120;28;19900;-46
2022/07/15 14:09:32;;;;;;;;;;;26.60;96.40;;;;;;5145411;28;20192;-47
2022/07/15 14:11:59;;;;;;;;;;;26.60;96.30;;;;;;5145193;28;19936;-44
2022/07/15 14:14:25;;;;;;;;;;;26.60;96.40;;;;;;5145312;28;19907;-48
2022/07/15 14:16:52;;;;;;;;;;;26.60;96.50;;;;;;5144987;28;20206;-42
2022/07/15 14:19:18;;;;;;;;;;;26.60;96.50;;;;;;5145311;28;20183;-42
2022/07/15 14:21:44;;;;;;;;;;;26.60;96.40;;;;;;5144823;28;19910;-44
2022/07/15 14:24:10;;;;;;;;;;;26.70;96.50;;;;;;5144538;28;19907;-46
2022/07/15 14:26:37;;;;;;;;;;;26.70;96.60;;;;;;5145171;28;19931;-44
2022/07/15 14:29:04;;;;;;;;;;;26.70;96.70;;;;;;5145148;28;19908;-44
2022/07/15 14:31:30;;;;;;;;;;;26.70;96.60;;;;;;5147039;27;19982;-48
2022/07/15 14:33:56;;;;;;;;;;;26.70;96.50;;;;;;5149198;27;19908;-46